sensor_id;sensor_type;location;lat;lon;timestamp;P1;durP1;ratioP1;P2;durP2;ratioP2
4903;SDS011;2467;48.142;11.616;2023-06-14T00:00:13;8.63;;;7.40;;
4903;SDS011;2467;48.142;11.616;2023-06-14T00:00:46;5.70;;;5.20;;
4903;SDS011;2467;48.142;11.616;2023-06-14T00:01:20;6.00;;;5.45;;
4903;SDS011;2467;48.142;11.616;2023-06-14T00:01:53;6.03;;;5.53;;
4903;SDS011;2467;48.142;11.616;2023-06-14T00:02:25;5.45;;;4.95;;
4903;SDS011;2467;48.142;11.616;2023-06-14T00:02:58;4.22;;;3.92;;
4903;SDS011;2467;48.142;11.616;2023-06-14T00:03:30;4.57;;;4.18;;
4903;SDS011;2467;48.142;11.616;2023-06-14T00:04:03;4.13;;;3.83;;
4903;SDS011;2467;48.142;11.616;2023-06-14T00:04:37;4.43;;;3.80;;
4903;SDS011;2467;48.142;11.616;2023-06-14T00:05:10;4.28;;;3.97;;
4903;SDS011;2467;48.142;11.616;2023-06-14T00:05:44;6.78;;;4.80;;
4903;SDS011;2467;48.142;11.616;2023-06-14T00:06:17;4.88;;;4.47;;
4903;SDS011;2467;48.142;11.616;2023-06-14T00:06:49;4.22;;;3.92;;
4903;SDS011;2467;48.142;11.616;2023-06-14T00:07:33;8.00;;;4.95;;
4903;SDS011;2467;48.142;11.616;2023-06-14T00:08:05;4.60;;;4.20;;
4903;SDS011;2467;48.142;11.616;2023-06-14T00:08:38;4.30;;;3.90;;
4903;SDS011;2467;48.142;11.616;2023-06-14T00:09:11;5.45;;;4.93;;
4903;SDS011;2467;48.142;11.616;2023-06-14T00:09:43;4.72;;;4.38;;
4903;SDS011;2467;48.142;11.616;2023-06-14T00:10:15;5.63;;;4.85;;
4903;SDS011;2467;48.142;11.616;2023-06-14T00:10:48;4.40;;;4.10;;
4903;SDS011;2467;48.142;11.616;2023-06-14T00:11:20;4.72;;;4.30;;
4903;SDS011;2467;48.142;11.616;2023-06-14T00:11:52;3.88;;;3.65;;
4903;SDS011;2467;48.142;11.616;2023-06-14T00:12:25;5.40;;;4.00;;
4903;SDS011;2467;48.142;11.616;2023-06-14T00:12:57;4.70;;;3.47;;
4903;SDS011;2467;48.142;11.616;2023-06-14T00:13:31;4.43;;;4.13;;
4903;SDS011;2467;48.142;11.616;2023-06-14T00:14:03;4.25;;;3.85;;
4903;SDS011;2467;48.142;11.616;2023-06-14T00:14:36;4.80;;;4.38;;
4903;SDS011;2467;48.142;11.616;2023-06-14T00:15:08;5.88;;;4.57;;
4903;SDS011;2467;48.142;11.616;2023-06-14T00:15:41;4.45;;;4.05;;
4903;SDS011;2467;48.142;11.616;2023-06-14T00:16:13;4.88;;;4.47;;
4903;SDS011;2467;48.142;11.616;2023-06-14T00:16:48;4.60;;;4.20;;
4903;SDS011;2467;48.142;11.616;2023-06-14T00:17:20;5.78;;;3.90;;
4903;SDS011;2467;48.142;11.616;2023-06-14T00:17:53;5.82;;;4.65;;
4903;SDS011;2467;48.142;11.616;2023-06-14T00:18:26;4.75;;;4.00;;
4903;SDS011;2467;48.142;11.616;2023-06-14T00:19:00;4.53;;;4.13;;
4903;SDS011;2467;48.142;11.616;2023-06-14T00:19:34;4.63;;;4.22;;
4903;SDS011;2467;48.142;11.616;2023-06-14T00:20:08;4.07;;;3.78;;
4903;SDS011;2467;48.142;11.616;2023-06-14T00:20:42;4.93;;;4.13;;
4903;SDS011;2467;48.142;11.616;2023-06-14T00:21:14;4.40;;;4.10;;
4903;SDS011;2467;48.142;11.616;2023-06-14T00:21:46;4.90;;;4.55;;
4903;SDS011;2467;48.142;11.616;2023-06-14T00:22:20;5.25;;;4.70;;
4903;SDS011;2467;48.142;11.616;2023-06-14T00:22:53;4.18;;;3.88;;
4903;SDS011;2467;48.142;11.616;2023-06-14T00:23:26;4.15;;;3.70;;
4903;SDS011;2467;48.142;11.616;2023-06-14T00:23:59;5.63;;;4.20;;
4903;SDS011;2467;48.142;11.616;2023-06-14T00:24:31;5.63;;;5.13;;
4903;SDS011;2467;48.142;11.616;2023-06-14T00:25:03;4.47;;;4.07;;
4903;SDS011;2467;48.142;11.616;2023-06-14T00:25:54;4.75;;;4.35;;
4903;SDS011;2467;48.142;11.616;2023-06-14T00:26:26;4.80;;;3.90;;
4903;SDS011;2467;48.142;11.616;2023-06-14T00:26:58;5.35;;;4.78;;
4903;SDS011;2467;48.142;11.616;2023-06-14T00:27:31;4.90;;;4.07;;
4903;SDS011;2467;48.142;11.616;2023-06-14T00:28:03;4.88;;;4.35;;
4903;SDS011;2467;48.142;11.616;2023-06-14T00:28:35;4.00;;;3.60;;
4903;SDS011;2467;48.142;11.616;2023-06-14T00:29:07;5.10;;;4.60;;
4903;SDS011;2467;48.142;11.616;2023-06-14T00:29:40;3.90;;;3.60;;
4903;SDS011;2467;48.142;11.616;2023-06-14T00:30:12;5.07;;;4.55;;
4903;SDS011;2467;48.142;11.616;2023-06-14T00:30:45;4.50;;;4.10;;
4903;SDS011;2467;48.142;11.616;2023-06-14T00:31:18;5.00;;;4.60;;
4903;SDS011;2467;48.142;11.616;2023-06-14T00:31:50;4.50;;;4.10;;
4903;SDS011;2467;48.142;11.616;2023-06-14T00:32:22;5.53;;;4.25;;
4903;SDS011;2467;48.142;11.616;2023-06-14T00:32:57;5.15;;;4.75;;
4903;SDS011;2467;48.142;11.616;2023-06-14T00:33:29;4.05;;;3.75;;
4903;SDS011;2467;48.142;11.616;2023-06-14T00:34:01;4.90;;;4.35;;
4903;SDS011;2467;48.142;11.616;2023-06-14T00:34:34;5.22;;;4.18;;
4903;SDS011;2467;48.142;11.616;2023-06-14T00:35:06;5.20;;;4.78;;
4903;SDS011;2467;48.142;11.616;2023-06-14T00:35:39;4.68;;;4.30;;
4903;SDS011;2467;48.142;11.616;2023-06-14T00:36:12;4.07;;;3.50;;
4903;SDS011;2467;48.142;11.616;2023-06-14T00:36:44;5.55;;;3.90;;
4903;SDS011;2467;48.142;11.616;2023-06-14T00:37:16;4.72;;;4.28;;
4903;SDS011;2467;48.142;11.616;2023-06-14T00:37:48;4.53;;;4.13;;
4903;SDS011;2467;48.142;11.616;2023-06-14T00:38:22;4.70;;;4.30;;
4903;SDS011;2467;48.142;11.616;2023-06-14T00:38:54;4.72;;;4.28;;
4903;SDS011;2467;48.142;11.616;2023-06-14T00:39:26;4.50;;;4.10;;
4903;SDS011;2467;48.142;11.616;2023-06-14T00:39:59;4.85;;;4.35;;
4903;SDS011;2467;48.142;11.616;2023-06-14T00:40:31;4.95;;;4.55;;
4903;SDS011;2467;48.142;11.616;2023-06-14T00:41:03;4.10;;;3.80;;
4903;SDS011;2467;48.142;11.616;2023-06-14T00:41:35;5.45;;;4.55;;
4903;SDS011;2467;48.142;11.616;2023-06-14T00:42:08;4.65;;;4.13;;
4903;SDS011;2467;48.142;11.616;2023-06-14T00:42:40;4.40;;;4.00;;
4903;SDS011;2467;48.142;11.616;2023-06-14T00:43:12;6.82;;;4.97;;
4903;SDS011;2467;48.142;11.616;2023-06-14T00:43:45;5.07;;;4.57;;
4903;SDS011;2467;48.142;11.616;2023-06-14T00:44:17;6.10;;;4.75;;
4903;SDS011;2467;48.142;11.616;2023-06-14T00:44:49;4.40;;;3.92;;
4903;SDS011;2467;48.142;11.616;2023-06-14T00:45:22;4.10;;;3.80;;
4903;SDS011;2467;48.142;11.616;2023-06-14T00:45:54;4.97;;;4.43;;
4903;SDS011;2467;48.142;11.616;2023-06-14T00:46:26;4.70;;;4.30;;
4903;SDS011;2467;48.142;11.616;2023-06-14T00:46:59;4.40;;;4.00;;
4903;SDS011;2467;48.142;11.616;2023-06-14T00:47:31;4.78;;;4.28;;
4903;SDS011;2467;48.142;11.616;2023-06-14T00:48:04;4.95;;;4.13;;
4903;SDS011;2467;48.142;11.616;2023-06-14T00:48:38;5.43;;;4.43;;
4903;SDS011;2467;48.142;11.616;2023-06-14T00:49:11;4.50;;;4.10;;
4903;SDS011;2467;48.142;11.616;2023-06-14T00:49:46;4.07;;;3.78;;
4903;SDS011;2467;48.142;11.616;2023-06-14T00:50:18;3.92;;;3.63;;
4903;SDS011;2467;48.142;11.616;2023-06-14T00:50:54;4.60;;;4.25;;
4903;SDS011;2467;48.142;11.616;2023-06-14T00:51:26;4.10;;;3.80;;
4903;SDS011;2467;48.142;11.616;2023-06-14T00:51:58;4.78;;;4.30;;
4903;SDS011;2467;48.142;11.616;2023-06-14T00:52:33;4.78;;;4.38;;
4903;SDS011;2467;48.142;11.616;2023-06-14T00:53:05;7.57;;;4.63;;
4903;SDS011;2467;48.142;11.616;2023-06-14T00:53:40;5.65;;;4.43;;
4903;SDS011;2467;48.142;11.616;2023-06-14T00:54:17;6.22;;;4.25;;
4903;SDS011;2467;48.142;11.616;2023-06-14T00:54:49;4.80;;;4.20;;
4903;SDS011;2467;48.142;11.616;2023-06-14T00:55:21;5.90;;;4.30;;
4903;SDS011;2467;48.142;11.616;2023-06-14T00:55:54;4.70;;;3.97;;
4903;SDS011;2467;48.142;11.616;2023-06-14T00:56:26;4.40;;;4.00;;
4903;SDS011;2467;48.142;11.616;2023-06-14T00:56:58;4.50;;;4.20;;
4903;SDS011;2467;48.142;11.616;2023-06-14T00:57:31;7.20;;;4.20;;
4903;SDS011;2467;48.142;11.616;2023-06-14T00:58:03;4.68;;;4.38;;
4903;SDS011;2467;48.142;11.616;2023-06-14T00:58:36;3.67;;;3.38;;
4903;SDS011;2467;48.142;11.616;2023-06-14T00:59:08;4.70;;;3.97;;
4903;SDS011;2467;48.142;11.616;2023-06-14T00:59:43;4.43;;;4.03;;
4903;SDS011;2467;48.142;11.616;2023-06-14T01:00:17;4.78;;;4.38;;
4903;SDS011;2467;48.142;11.616;2023-06-14T01:00:49;4.90;;;4.43;;
4903;SDS011;2467;48.142;11.616;2023-06-14T01:01:22;4.70;;;4.40;;
4903;SDS011;2467;48.142;11.616;2023-06-14T01:01:55;4.00;;;3.70;;
4903;SDS011;2467;48.142;11.616;2023-06-14T01:02:27;4.65;;;4.25;;
4903;SDS011;2467;48.142;11.616;2023-06-14T01:03:00;4.00;;;3.70;;
4903;SDS011;2467;48.142;11.616;2023-06-14T01:03:34;4.43;;;4.13;;
4903;SDS011;2467;48.142;11.616;2023-06-14T01:04:06;5.03;;;4.57;;
4903;SDS011;2467;48.142;11.616;2023-06-14T01:04:39;9.38;;;5.30;;
4903;SDS011;2467;48.142;11.616;2023-06-14T01:05:12;5.28;;;4.32;;
4903;SDS011;2467;48.142;11.616;2023-06-14T01:05:46;5.20;;;4.80;;
4903;SDS011;2467;48.142;11.616;2023-06-14T01:06:21;5.35;;;4.88;;
4903;SDS011;2467;48.142;11.616;2023-06-14T01:07:02;4.85;;;4.45;;
4903;SDS011;2467;48.142;11.616;2023-06-14T01:07:51;5.00;;;4.65;;
4903;SDS011;2467;48.142;11.616;2023-06-14T01:08:37;5.60;;;4.32;;
4903;SDS011;2467;48.142;11.616;2023-06-14T01:09:21;4.20;;;3.90;;
4903;SDS011;2467;48.142;11.616;2023-06-14T01:10:03;5.15;;;4.65;;
4903;SDS011;2467;48.142;11.616;2023-06-14T01:10:53;5.85;;;4.63;;
4903;SDS011;2467;48.142;11.616;2023-06-14T01:11:33;5.00;;;4.60;;
4903;SDS011;2467;48.142;11.616;2023-06-14T01:12:11;5.28;;;4.72;;
4903;SDS011;2467;48.142;11.616;2023-06-14T01:12:50;4.50;;;4.10;;
4903;SDS011;2467;48.142;11.616;2023-06-14T01:13:33;5.45;;;4.20;;
4903;SDS011;2467;48.142;11.616;2023-06-14T01:14:07;5.13;;;4.70;;
4903;SDS011;2467;48.142;11.616;2023-06-14T01:14:42;4.75;;;4.28;;
4903;SDS011;2467;48.142;11.616;2023-06-14T01:15:15;6.80;;;5.20;;
4903;SDS011;2467;48.142;11.616;2023-06-14T01:15:47;6.68;;;4.45;;
4903;SDS011;2467;48.142;11.616;2023-06-14T01:16:22;5.70;;;4.35;;
4903;SDS011;2467;48.142;11.616;2023-06-14T01:16:55;6.15;;;4.35;;
4903;SDS011;2467;48.142;11.616;2023-06-14T01:17:28;7.55;;;3.63;;
4903;SDS011;2467;48.142;11.616;2023-06-14T01:18:04;6.63;;;5.82;;
4903;SDS011;2467;48.142;11.616;2023-06-14T01:18:36;5.35;;;4.93;;
4903;SDS011;2467;48.142;11.616;2023-06-14T01:19:09;5.40;;;4.90;;
4903;SDS011;2467;48.142;11.616;2023-06-14T01:19:45;5.05;;;4.07;;
4903;SDS011;2467;48.142;11.616;2023-06-14T01:20:17;4.30;;;4.00;;
4903;SDS011;2467;48.142;11.616;2023-06-14T01:20:51;6.75;;;4.55;;
4903;SDS011;2467;48.142;11.616;2023-06-14T01:21:26;5.13;;;4.45;;
4903;SDS011;2467;48.142;11.616;2023-06-14T01:21:59;4.75;;;4.45;;
4903;SDS011;2467;48.142;11.616;2023-06-14T01:22:32;4.32;;;4.03;;
4903;SDS011;2467;48.142;11.616;2023-06-14T01:23:05;5.18;;;4.78;;
4903;SDS011;2467;48.142;11.616;2023-06-14T01:23:38;4.00;;;3.70;;
4903;SDS011;2467;48.142;11.616;2023-06-14T01:24:10;7.53;;;4.78;;
4903;SDS011;2467;48.142;11.616;2023-06-14T01:24:42;5.40;;;4.90;;
4903;SDS011;2467;48.142;11.616;2023-06-14T01:25:16;4.55;;;4.18;;
4903;SDS011;2467;48.142;11.616;2023-06-14T01:25:48;5.35;;;4.85;;
4903;SDS011;2467;48.142;11.616;2023-06-14T01:26:24;4.90;;;4.50;;
4903;SDS011;2467;48.142;11.616;2023-06-14T01:27:00;5.00;;;4.60;;
4903;SDS011;2467;48.142;11.616;2023-06-14T01:27:33;6.47;;;4.78;;
4903;SDS011;2467;48.142;11.616;2023-06-14T01:28:06;7.63;;;5.13;;
4903;SDS011;2467;48.142;11.616;2023-06-14T01:28:41;5.20;;;4.68;;
4903;SDS011;2467;48.142;11.616;2023-06-14T01:29:19;4.18;;;3.88;;
4903;SDS011;2467;48.142;11.616;2023-06-14T01:29:52;5.45;;;4.53;;
4903;SDS011;2467;48.142;11.616;2023-06-14T01:30:27;5.45;;;4.18;;
4903;SDS011;2467;48.142;11.616;2023-06-14T01:31:02;5.35;;;4.82;;
4903;SDS011;2467;48.142;11.616;2023-06-14T01:31:35;4.82;;;4.40;;
4903;SDS011;2467;48.142;11.616;2023-06-14T01:32:12;6.00;;;4.25;;
4903;SDS011;2467;48.142;11.616;2023-06-14T01:32:45;5.28;;;4.78;;
4903;SDS011;2467;48.142;11.616;2023-06-14T01:33:18;4.30;;;3.90;;
4903;SDS011;2467;48.142;11.616;2023-06-14T01:33:52;5.07;;;4.68;;
4903;SDS011;2467;48.142;11.616;2023-06-14T01:34:25;5.18;;;4.45;;
4903;SDS011;2467;48.142;11.616;2023-06-14T01:34:57;5.90;;;5.40;;
4903;SDS011;2467;48.142;11.616;2023-06-14T01:35:30;5.00;;;4.68;;
4903;SDS011;2467;48.142;11.616;2023-06-14T01:36:02;3.67;;;3.38;;
4903;SDS011;2467;48.142;11.616;2023-06-14T01:36:37;5.05;;;4.65;;
4903;SDS011;2467;48.142;11.616;2023-06-14T01:37:12;5.05;;;4.65;;
4903;SDS011;2467;48.142;11.616;2023-06-14T01:37:45;4.55;;;4.15;;
4903;SDS011;2467;48.142;11.616;2023-06-14T01:38:21;4.80;;;4.40;;
4903;SDS011;2467;48.142;11.616;2023-06-14T01:38:56;5.13;;;4.63;;
4903;SDS011;2467;48.142;11.616;2023-06-14T01:39:30;6.85;;;4.72;;
4903;SDS011;2467;48.142;11.616;2023-06-14T01:40:03;5.43;;;4.93;;
4903;SDS011;2467;48.142;11.616;2023-06-14T01:40:38;4.97;;;4.10;;
4903;SDS011;2467;48.142;11.616;2023-06-14T01:41:11;5.10;;;4.60;;
4903;SDS011;2467;48.142;11.616;2023-06-14T01:41:43;5.32;;;4.82;;
4903;SDS011;2467;48.142;11.616;2023-06-14T01:42:17;5.22;;;4.72;;
4903;SDS011;2467;48.142;11.616;2023-06-14T01:42:50;5.10;;;4.60;;
4903;SDS011;2467;48.142;11.616;2023-06-14T01:43:23;5.35;;;4.82;;
4903;SDS011;2467;48.142;11.616;2023-06-14T01:43:56;5.15;;;4.65;;
4903;SDS011;2467;48.142;11.616;2023-06-14T01:44:30;4.95;;;4.60;;
4903;SDS011;2467;48.142;11.616;2023-06-14T01:45:03;5.40;;;4.72;;
4903;SDS011;2467;48.142;11.616;2023-06-14T01:45:37;4.75;;;4.25;;
4903;SDS011;2467;48.142;11.616;2023-06-14T01:46:11;4.88;;;4.47;;
4903;SDS011;2467;48.142;11.616;2023-06-14T01:46:44;5.30;;;4.90;;
4903;SDS011;2467;48.142;11.616;2023-06-14T01:47:16;5.10;;;4.13;;
4903;SDS011;2467;48.142;11.616;2023-06-14T01:47:48;4.70;;;4.30;;
4903;SDS011;2467;48.142;11.616;2023-06-14T01:48:23;4.57;;;4.18;;
4903;SDS011;2467;48.142;11.616;2023-06-14T01:48:55;24.23;;;21.88;;
4903;SDS011;2467;48.142;11.616;2023-06-14T01:49:27;30.55;;;27.45;;
4903;SDS011;2467;48.142;11.616;2023-06-14T01:50:00;29.35;;;26.33;;
4903;SDS011;2467;48.142;11.616;2023-06-14T01:50:32;18.38;;;16.42;;
4903;SDS011;2467;48.142;11.616;2023-06-14T01:51:05;10.85;;;9.85;;
4903;SDS011;2467;48.142;11.616;2023-06-14T01:51:38;17.67;;;14.68;;
4903;SDS011;2467;48.142;11.616;2023-06-14T01:52:09;19.65;;;15.13;;
4903;SDS011;2467;48.142;11.616;2023-06-14T01:52:42;13.38;;;11.35;;
4903;SDS011;2467;48.142;11.616;2023-06-14T01:53:15;9.18;;;8.38;;
4903;SDS011;2467;48.142;11.616;2023-06-14T01:53:48;7.50;;;6.80;;
4903;SDS011;2467;48.142;11.616;2023-06-14T01:54:20;6.03;;;5.43;;
4903;SDS011;2467;48.142;11.616;2023-06-14T01:54:54;6.88;;;5.80;;
4903;SDS011;2467;48.142;11.616;2023-06-14T01:55:26;6.07;;;5.47;;
4903;SDS011;2467;48.142;11.616;2023-06-14T01:55:57;5.90;;;5.35;;
4903;SDS011;2467;48.142;11.616;2023-06-14T01:56:31;6.40;;;5.78;;
4903;SDS011;2467;48.142;11.616;2023-06-14T01:57:03;6.10;;;5.60;;
4903;SDS011;2467;48.142;11.616;2023-06-14T01:57:37;5.32;;;4.93;;
4903;SDS011;2467;48.142;11.616;2023-06-14T01:58:09;7.00;;;5.25;;
4903;SDS011;2467;48.142;11.616;2023-06-14T01:58:43;5.05;;;4.65;;
4903;SDS011;2467;48.142;11.616;2023-06-14T01:59:15;5.38;;;4.95;;
4903;SDS011;2467;48.142;11.616;2023-06-14T01:59:47;5.90;;;5.13;;
4903;SDS011;2467;48.142;11.616;2023-06-14T02:00:20;5.30;;;4.85;;
4903;SDS011;2467;48.142;11.616;2023-06-14T02:00:52;6.30;;;5.32;;
4903;SDS011;2467;48.142;11.616;2023-06-14T02:01:26;5.57;;;5.07;;
4903;SDS011;2467;48.142;11.616;2023-06-14T02:02:00;9.45;;;5.22;;
4903;SDS011;2467;48.142;11.616;2023-06-14T02:02:32;6.90;;;5.03;;
4903;SDS011;2467;48.142;11.616;2023-06-14T02:03:04;5.00;;;4.60;;
4903;SDS011;2467;48.142;11.616;2023-06-14T02:03:37;5.47;;;4.97;;
4903;SDS011;2467;48.142;11.616;2023-06-14T02:04:10;5.10;;;4.70;;
4903;SDS011;2467;48.142;11.616;2023-06-14T02:04:41;6.10;;;5.18;;
4903;SDS011;2467;48.142;11.616;2023-06-14T02:05:13;6.85;;;4.30;;
4903;SDS011;2467;48.142;11.616;2023-06-14T02:05:50;4.95;;;4.53;;
4903;SDS011;2467;48.142;11.616;2023-06-14T02:06:22;5.53;;;5.03;;
4903;SDS011;2467;48.142;11.616;2023-06-14T02:06:55;5.45;;;4.95;;
4903;SDS011;2467;48.142;11.616;2023-06-14T02:07:28;7.32;;;5.57;;
4903;SDS011;2467;48.142;11.616;2023-06-14T02:08:00;6.75;;;6.05;;
4903;SDS011;2467;48.142;11.616;2023-06-14T02:08:32;6.20;;;4.82;;
4903;SDS011;2467;48.142;11.616;2023-06-14T02:09:06;6.45;;;4.93;;
4903;SDS011;2467;48.142;11.616;2023-06-14T02:09:38;5.30;;;4.80;;
4903;SDS011;2467;48.142;11.616;2023-06-14T02:10:10;5.72;;;4.55;;
4903;SDS011;2467;48.142;11.616;2023-06-14T02:10:43;10.85;;;4.65;;
4903;SDS011;2467;48.142;11.616;2023-06-14T02:11:15;5.10;;;4.70;;
4903;SDS011;2467;48.142;11.616;2023-06-14T02:11:47;5.10;;;4.70;;
4903;SDS011;2467;48.142;11.616;2023-06-14T02:12:20;7.88;;;5.38;;
4903;SDS011;2467;48.142;11.616;2023-06-14T02:12:52;5.85;;;5.38;;
4903;SDS011;2467;48.142;11.616;2023-06-14T02:13:24;5.47;;;4.93;;
4903;SDS011;2467;48.142;11.616;2023-06-14T02:13:57;5.20;;;4.75;;
4903;SDS011;2467;48.142;11.616;2023-06-14T02:14:31;5.72;;;5.28;;
4903;SDS011;2467;48.142;11.616;2023-06-14T02:15:03;4.70;;;4.35;;
4903;SDS011;2467;48.142;11.616;2023-06-14T02:15:37;4.95;;;4.43;;
4903;SDS011;2467;48.142;11.616;2023-06-14T02:16:09;5.25;;;4.75;;
4903;SDS011;2467;48.142;11.616;2023-06-14T02:16:42;5.13;;;4.72;;
4903;SDS011;2467;48.142;11.616;2023-06-14T02:17:19;5.30;;;4.80;;
4903;SDS011;2467;48.142;11.616;2023-06-14T02:17:51;5.53;;;5.10;;
4903;SDS011;2467;48.142;11.616;2023-06-14T02:18:25;5.72;;;5.20;;
4903;SDS011;2467;48.142;11.616;2023-06-14T02:18:57;4.30;;;4.00;;
4903;SDS011;2467;48.142;11.616;2023-06-14T02:19:29;5.00;;;4.43;;
4903;SDS011;2467;48.142;11.616;2023-06-14T02:20:02;5.60;;;5.20;;
4903;SDS011;2467;48.142;11.616;2023-06-14T02:20:36;5.38;;;4.97;;
4903;SDS011;2467;48.142;11.616;2023-06-14T02:21:07;5.10;;;4.53;;
4903;SDS011;2467;48.142;11.616;2023-06-14T02:21:40;5.40;;;4.90;;
4903;SDS011;2467;48.142;11.616;2023-06-14T02:22:12;5.22;;;4.57;;
4903;SDS011;2467;48.142;11.616;2023-06-14T02:22:46;4.75;;;4.35;;
4903;SDS011;2467;48.142;11.616;2023-06-14T02:23:18;4.32;;;4.03;;
4903;SDS011;2467;48.142;11.616;2023-06-14T02:23:50;8.60;;;5.20;;
4903;SDS011;2467;48.142;11.616;2023-06-14T02:24:24;4.93;;;4.43;;
4903;SDS011;2467;48.142;11.616;2023-06-14T02:24:57;6.03;;;5.38;;
4903;SDS011;2467;48.142;11.616;2023-06-14T02:25:33;4.82;;;4.43;;
4903;SDS011;2467;48.142;11.616;2023-06-14T02:26:05;5.13;;;4.70;;
4903;SDS011;2467;48.142;11.616;2023-06-14T02:26:38;4.80;;;4.40;;
4903;SDS011;2467;48.142;11.616;2023-06-14T02:27:11;5.85;;;4.93;;
4903;SDS011;2467;48.142;11.616;2023-06-14T02:27:43;6.05;;;4.75;;
4903;SDS011;2467;48.142;11.616;2023-06-14T02:28:15;4.80;;;4.40;;
4903;SDS011;2467;48.142;11.616;2023-06-14T02:28:47;4.85;;;4.45;;
4903;SDS011;2467;48.142;11.616;2023-06-14T02:29:19;5.50;;;5.00;;
4903;SDS011;2467;48.142;11.616;2023-06-14T02:29:52;5.47;;;5.00;;
4903;SDS011;2467;48.142;11.616;2023-06-14T02:30:24;4.78;;;4.38;;
4903;SDS011;2467;48.142;11.616;2023-06-14T02:30:56;6.20;;;5.60;;
4903;SDS011;2467;48.142;11.616;2023-06-14T02:31:29;8.65;;;5.40;;
4903;SDS011;2467;48.142;11.616;2023-06-14T02:32:01;5.50;;;4.97;;
4903;SDS011;2467;48.142;11.616;2023-06-14T02:32:33;5.15;;;4.65;;
4903;SDS011;2467;48.142;11.616;2023-06-14T02:33:07;4.78;;;4.38;;
4903;SDS011;2467;48.142;11.616;2023-06-14T02:33:43;5.82;;;5.32;;
4903;SDS011;2467;48.142;11.616;2023-06-14T02:34:15;6.97;;;4.70;;
4903;SDS011;2467;48.142;11.616;2023-06-14T02:34:48;5.35;;;4.70;;
4903;SDS011;2467;48.142;11.616;2023-06-14T02:35:21;5.40;;;4.90;;
4903;SDS011;2467;48.142;11.616;2023-06-14T02:35:55;5.85;;;5.38;;
4903;SDS011;2467;48.142;11.616;2023-06-14T02:36:28;4.60;;;4.30;;
4903;SDS011;2467;48.142;11.616;2023-06-14T02:37:01;5.07;;;4.55;;
4903;SDS011;2467;48.142;11.616;2023-06-14T02:37:34;6.05;;;5.38;;
4903;SDS011;2467;48.142;11.616;2023-06-14T02:38:06;5.20;;;4.72;;
4903;SDS011;2467;48.142;11.616;2023-06-14T02:38:39;5.75;;;5.15;;
4903;SDS011;2467;48.142;11.616;2023-06-14T02:39:12;4.95;;;4.45;;
4903;SDS011;2467;48.142;11.616;2023-06-14T02:39:45;5.40;;;4.90;;
4903;SDS011;2467;48.142;11.616;2023-06-14T02:40:17;5.10;;;4.70;;
4903;SDS011;2467;48.142;11.616;2023-06-14T02:40:49;4.90;;;4.53;;
4903;SDS011;2467;48.142;11.616;2023-06-14T02:41:22;5.82;;;5.32;;
4903;SDS011;2467;48.142;11.616;2023-06-14T02:41:54;4.75;;;4.13;;
4903;SDS011;2467;48.142;11.616;2023-06-14T02:42:26;4.75;;;4.35;;
4903;SDS011;2467;48.142;11.616;2023-06-14T02:42:59;7.05;;;4.53;;
4903;SDS011;2467;48.142;11.616;2023-06-14T02:43:31;5.95;;;4.60;;
4903;SDS011;2467;48.142;11.616;2023-06-14T02:44:03;4.70;;;4.15;;
4903;SDS011;2467;48.142;11.616;2023-06-14T02:44:36;4.72;;;4.32;;
4903;SDS011;2467;48.142;11.616;2023-06-14T02:45:08;4.53;;;4.13;;
4903;SDS011;2467;48.142;11.616;2023-06-14T02:45:40;5.40;;;4.88;;
4903;SDS011;2467;48.142;11.616;2023-06-14T02:46:13;5.72;;;5.05;;
4903;SDS011;2467;48.142;11.616;2023-06-14T02:46:46;5.82;;;4.50;;
4903;SDS011;2467;48.142;11.616;2023-06-14T02:47:18;4.57;;;4.18;;
4903;SDS011;2467;48.142;11.616;2023-06-14T02:47:50;4.90;;;4.50;;
4903;SDS011;2467;48.142;11.616;2023-06-14T02:48:23;5.40;;;4.90;;
4903;SDS011;2467;48.142;11.616;2023-06-14T02:48:55;4.90;;;4.50;;
4903;SDS011;2467;48.142;11.616;2023-06-14T02:49:28;6.05;;;5.07;;
4903;SDS011;2467;48.142;11.616;2023-06-14T02:50:00;4.88;;;4.47;;
4903;SDS011;2467;48.142;11.616;2023-06-14T02:50:33;5.22;;;4.82;;
4903;SDS011;2467;48.142;11.616;2023-06-14T02:51:06;5.10;;;4.70;;
4903;SDS011;2467;48.142;11.616;2023-06-14T02:51:39;6.78;;;5.28;;
4903;SDS011;2467;48.142;11.616;2023-06-14T02:52:11;5.30;;;4.75;;
4903;SDS011;2467;48.142;11.616;2023-06-14T02:52:44;6.30;;;5.13;;
4903;SDS011;2467;48.142;11.616;2023-06-14T02:53:16;5.30;;;4.80;;
4903;SDS011;2467;48.142;11.616;2023-06-14T02:53:48;4.68;;;4.38;;
4903;SDS011;2467;48.142;11.616;2023-06-14T02:54:21;4.90;;;4.53;;
4903;SDS011;2467;48.142;11.616;2023-06-14T02:54:55;5.50;;;4.97;;
4903;SDS011;2467;48.142;11.616;2023-06-14T02:55:27;4.65;;;4.25;;
4903;SDS011;2467;48.142;11.616;2023-06-14T02:55:59;5.20;;;4.70;;
4903;SDS011;2467;48.142;11.616;2023-06-14T02:56:32;5.20;;;4.80;;
4903;SDS011;2467;48.142;11.616;2023-06-14T02:57:04;7.00;;;5.07;;
4903;SDS011;2467;48.142;11.616;2023-06-14T02:57:38;4.90;;;4.50;;
4903;SDS011;2467;48.142;11.616;2023-06-14T02:58:10;5.90;;;4.60;;
4903;SDS011;2467;48.142;11.616;2023-06-14T02:58:42;5.13;;;4.72;;
4903;SDS011;2467;48.142;11.616;2023-06-14T02:59:15;5.85;;;5.32;;
4903;SDS011;2467;48.142;11.616;2023-06-14T02:59:48;4.75;;;4.35;;
4903;SDS011;2467;48.142;11.616;2023-06-14T03:00:20;4.65;;;4.30;;
4903;SDS011;2467;48.142;11.616;2023-06-14T03:00:54;6.00;;;5.55;;
4903;SDS011;2467;48.142;11.616;2023-06-14T03:01:26;6.18;;;5.57;;
4903;SDS011;2467;48.142;11.616;2023-06-14T03:02:05;5.13;;;4.72;;
4903;SDS011;2467;48.142;11.616;2023-06-14T03:02:38;5.32;;;4.93;;
4903;SDS011;2467;48.142;11.616;2023-06-14T03:03:10;6.00;;;5.40;;
4903;SDS011;2467;48.142;11.616;2023-06-14T03:03:45;4.93;;;4.53;;
4903;SDS011;2467;48.142;11.616;2023-06-14T03:04:19;5.18;;;4.47;;
4903;SDS011;2467;48.142;11.616;2023-06-14T03:04:51;5.25;;;4.70;;
4903;SDS011;2467;48.142;11.616;2023-06-14T03:05:24;6.65;;;5.28;;
4903;SDS011;2467;48.142;11.616;2023-06-14T03:05:59;5.07;;;4.55;;
4903;SDS011;2467;48.142;11.616;2023-06-14T03:06:35;5.70;;;5.20;;
4903;SDS011;2467;48.142;11.616;2023-06-14T03:07:07;5.70;;;4.70;;
4903;SDS011;2467;48.142;11.616;2023-06-14T03:07:41;8.85;;;5.55;;
4903;SDS011;2467;48.142;11.616;2023-06-14T03:08:16;5.65;;;5.15;;
4903;SDS011;2467;48.142;11.616;2023-06-14T03:08:50;5.18;;;4.68;;
4903;SDS011;2467;48.142;11.616;2023-06-14T03:09:26;5.45;;;5.00;;
4903;SDS011;2467;48.142;11.616;2023-06-14T03:10:00;4.95;;;4.53;;
4903;SDS011;2467;48.142;11.616;2023-06-14T03:10:32;5.25;;;4.85;;
4903;SDS011;2467;48.142;11.616;2023-06-14T03:11:05;4.45;;;4.15;;
4903;SDS011;2467;48.142;11.616;2023-06-14T03:11:37;7.25;;;5.25;;
4903;SDS011;2467;48.142;11.616;2023-06-14T03:12:09;8.48;;;4.32;;
4903;SDS011;2467;48.142;11.616;2023-06-14T03:12:42;5.50;;;5.00;;
4903;SDS011;2467;48.142;11.616;2023-06-14T03:13:15;5.10;;;4.70;;
4903;SDS011;2467;48.142;11.616;2023-06-14T03:13:47;4.70;;;4.35;;
4903;SDS011;2467;48.142;11.616;2023-06-14T03:14:22;5.20;;;4.70;;
4903;SDS011;2467;48.142;11.616;2023-06-14T03:14:54;5.50;;;5.00;;
4903;SDS011;2467;48.142;11.616;2023-06-14T03:15:28;5.40;;;4.75;;
4903;SDS011;2467;48.142;11.616;2023-06-14T03:16:02;6.45;;;6.00;;
4903;SDS011;2467;48.142;11.616;2023-06-14T03:16:34;5.18;;;4.78;;
4903;SDS011;2467;48.142;11.616;2023-06-14T03:17:08;5.43;;;5.03;;
4903;SDS011;2467;48.142;11.616;2023-06-14T03:17:41;5.80;;;5.30;;
4903;SDS011;2467;48.142;11.616;2023-06-14T03:18:17;5.45;;;4.95;;
4903;SDS011;2467;48.142;11.616;2023-06-14T03:18:49;5.13;;;4.47;;
4903;SDS011;2467;48.142;11.616;2023-06-14T03:19:21;5.80;;;5.18;;
4903;SDS011;2467;48.142;11.616;2023-06-14T03:19:54;4.28;;;3.97;;
4903;SDS011;2467;48.142;11.616;2023-06-14T03:20:26;6.03;;;4.50;;
4903;SDS011;2467;48.142;11.616;2023-06-14T03:21:00;5.55;;;4.55;;
4903;SDS011;2467;48.142;11.616;2023-06-14T03:21:33;5.35;;;4.82;;
4903;SDS011;2467;48.142;11.616;2023-06-14T03:22:05;5.90;;;5.40;;
4903;SDS011;2467;48.142;11.616;2023-06-14T03:22:38;4.90;;;4.50;;
4903;SDS011;2467;48.142;11.616;2023-06-14T03:23:12;7.03;;;5.90;;
4903;SDS011;2467;48.142;11.616;2023-06-14T03:23:44;5.65;;;5.15;;